Ouagadougou, Burkina Faso
Current Conditions -  °F | °C
As of 12:00 AM on Friday 28 Nov 2014 (Local Time) from DFFD Reporting Station
Clear Clear  
Wind Chill: 75°   Ceiling: Unl
Heat Index: 75°   Visibility: 5mi
Dew Point: 45°   Wind: 0mph
Humidity: 34%   Direction: NA
Pressure: 29.88"   Gusts: NA
Location:  12.37°N, 1.53°W
Report Text: DFFD 280000Z 00000KT 8000 NSC 24/07 Q1012 NOSIG
Loading
Personal Weather Stations






























Interactive Weather Map New forecast layout! Learn more

10-Day Weather Forecast

Advertisements
Track Severe Weather on mobile